Time;durP1;ratioP1;P1;durP2;ratioP2;P2;SDS_P1;SDS_P2;PMS_P1;PMS_P2;Temp;Humidity;BMP_temperature;BMP_pressure;BME280_temperature;BME280_humidity;BME280_pressure;Samples;Min_cycle;Max_cycle;Signal;HPM_P1;HPM_P2
2022/03/01 00:01:04;;;;;;;23.88;12.98;;;;;;;1.25;57.82;100093.59;2625051;54;20538;-66
2022/03/01 00:03:36;;;;;;;14.95;11.05;;;;;;;1.17;57.64;100094.09;2624990;39;20415;-66
2022/03/01 00:06:06;;;;;;;16.83;10.60;;;;;;;1.08;58.08;100093.88;2624601;54;20536;-66
2022/03/01 00:08:36;;;;;;;16.40;10.98;;;;;;;1.08;58.37;100099.94;2623745;54;20039;-64
2022/03/01 00:11:05;;;;;;;14.18;9.48;;;;;;;1.17;58.02;100108.91;2624575;46;20046;-64
2022/03/01 00:13:36;;;;;;;12.80;9.20;;;;;;;1.20;57.69;100104.34;2624999;54;20046;-65
2022/03/01 00:16:06;;;;;;;12.43;8.10;;;;;;;1.19;57.48;100102.66;2624962;54;20030;-65
2022/03/01 00:18:39;;;;;;;11.80;8.85;;;;;;;1.18;57.32;100107.97;2624566;47;20041;-66
2022/03/01 00:21:09;;;;;;;14.43;8.93;;;;;;;1.09;57.23;100103.38;2623793;54;20026;-66
2022/03/01 00:23:39;;;;;;;14.13;9.50;;;;;;;1.14;57.64;100109.97;2625077;54;20046;-66
2022/03/01 00:26:08;;;;;;;13.27;9.57;;;;;;;1.21;57.75;100100.78;2624133;54;20049;-64
2022/03/01 00:28:38;;;;;;;14.25;9.43;;;;;;;1.18;57.44;100105.34;2624333;54;20034;-65
2022/03/01 00:31:08;;;;;;;13.15;9.75;;;;;;;1.15;57.65;100098.59;2623444;54;20106;-63
2022/03/01 00:33:45;;;;;;;15.95;9.30;;;;;;;1.14;57.45;100107.34;2622830;54;20038;-66
2022/03/01 00:36:24;;;;;;;15.15;10.35;;;;;;;1.01;57.51;100106.47;2624640;54;20026;-65
2022/03/01 00:38:57;;;;;;;17.85;11.25;;;;;;;0.84;58.40;100114.53;2624921;54;20026;-65
2022/03/01 00:41:26;;;;;;;19.20;11.75;;;;;;;0.95;58.38;100115.53;2622357;54;20077;-65
2022/03/01 00:44:02;;;;;;;18.45;11.90;;;;;;;1.04;58.59;100123.66;2622774;54;20034;-65
2022/03/01 00:46:35;;;;;;;16.77;11.88;;;;;;;1.07;58.49;100126.09;2624050;54;20049;-64
2022/03/01 00:49:07;;;;;;;17.80;11.80;;;;;;;1.13;58.44;100121.28;2623728;54;20070;-64
2022/03/01 00:51:37;;;;;;;17.38;11.55;;;;;;;1.21;58.32;100120.78;2624542;46;20046;-67
2022/03/01 00:54:12;;;;;;;18.25;11.27;;;;;;;1.25;58.24;100127.47;2623756;46;20039;-65
2022/03/01 00:56:42;;;;;;;19.67;11.85;;;;;;;1.28;57.92;100132.50;2625054;54;20034;-65
2022/03/01 00:59:12;;;;;;;17.38;11.55;;;;;;;1.30;58.50;100133.22;2625463;54;20050;-64
2022/03/01 01:02:07;;;;;;;16.73;10.90;;;;;;;1.27;57.97;100124.78;2626847;39;20209;-64
2022/03/01 01:04:40;;;;;;;19.40;11.98;;;;;;;1.16;58.37;100130.69;2623926;46;20027;-64
2022/03/01 01:07:10;;;;;;;18.88;11.32;;;;;;;0.99;58.76;100127.41;2624510;54;20042;-66
2022/03/01 01:09:40;;;;;;;16.58;11.80;;;;;;;1.05;58.45;100127.94;2622182;54;20046;-65
2022/03/01 01:12:12;;;;;;;18.42;11.75;;;;;;;1.02;58.60;100134.19;2622979;54;20026;-67
2022/03/01 01:14:42;;;;;;;19.13;11.93;;;;;;;1.02;58.77;100126.38;2623161;54;20038;-64
2022/03/01 01:17:13;;;;;;;17.02;11.68;;;;;;;0.90;58.94;100124.56;2623348;54;20031;-64
2022/03/01 01:19:46;;;;;;;18.90;12.90;;;;;;;0.88;58.92;100127.25;2622890;54;20027;-64
2022/03/01 01:24:58;;;;;;;20.77;14.43;;;;;;;0.64;59.53;100115.81;2622982;54;20099;-65
2022/03/01 01:27:27;;;;;;;21.30;12.85;;;;;;;0.50;59.70;100111.47;2622357;47;20034;-66
2022/03/01 01:29:57;;;;;;;20.02;12.07;;;;;;;0.42;60.30;100111.97;2622921;54;20045;-65
2022/03/01 01:32:27;;;;;;;17.17;11.10;;;;;;;0.43;60.40;100105.00;2622919;54;20062;-64
2022/03/01 01:34:59;;;;;;;18.23;12.48;;;;;;;0.39;60.62;100116.50;2623178;54;20049;-64
2022/03/01 01:37:29;;;;;;;17.60;11.82;;;;;;;0.34;60.42;100114.22;2623196;47;20038;-65
2022/03/01 01:39:58;;;;;;;16.13;10.07;;;;;;;0.30;61.02;100110.13;2624108;54;20579;-65
2022/03/01 01:42:28;;;;;;;16.00;10.40;;;;;;;0.34;60.28;100097.78;2622952;54;20125;-65
2022/03/01 01:44:58;;;;;;;14.38;10.07;;;;;;;0.32;60.63;100097.00;2623586;54;20099;-64
2022/03/01 01:47:47;;;;;;;16.40;10.13;;;;;;;0.30;60.44;100106.69;2623341;54;20038;-65
2022/03/01 01:50:19;;;;;;;14.77;10.77;;;;;;;0.23;60.65;100101.84;2623324;54;20026;-65
2022/03/01 01:52:51;;;;;;;19.40;10.73;;;;;;;0.22;61.14;100100.19;2624760;54;20042;-66
2022/03/01 01:55:22;;;;;;;19.40;11.80;;;;;;;0.16;60.99;100104.94;2623850;39;20421;-65
2022/03/01 01:57:58;;;;;;;16.55;10.25;;;;;;;0.13;61.06;100105.97;2622896;54;20026;-65
2022/03/01 02:00:29;;;;;;;17.90;11.45;;;;;;;0.12;61.23;100095.66;2623144;54;20103;-64
2022/03/01 02:03:00;;;;;;;16.38;10.88;;;;;;;0.15;61.40;100096.28;2621618;54;20022;-65
2022/03/01 02:05:33;;;;;;;12.98;9.13;;;;;;;0.25;61.13;100096.56;2621447;54;20038;-63
2022/03/01 02:08:02;;;;;;;14.15;9.70;;;;;;;0.25;60.98;100091.38;2622483;51;20038;-65
2022/03/01 02:10:32;;;;;;;12.48;8.93;;;;;;;0.28;60.86;100096.38;2624192;54;20030;-64
2022/03/01 02:13:02;;;;;;;13.93;9.70;;;;;;;0.30;60.97;100104.91;2625315;54;20130;-64
2022/03/01 02:15:31;;;;;;;16.48;10.48;;;;;;;0.32;60.57;100104.81;2623621;54;20026;-65
2022/03/01 02:18:01;;;;;;;12.60;9.43;;;;;;;0.29;60.63;100105.03;2623472;39;20437;-65
2022/03/01 02:20:33;;;;;;;13.77;9.35;;;;;;;0.24;60.89;100098.34;2623457;54;20031;-65
2022/03/01 02:23:04;;;;;;;14.73;9.77;;;;;;;0.23;60.83;100085.41;2623251;54;20057;-65
2022/03/01 02:25:34;;;;;;;14.75;10.40;;;;;;;0.30;61.15;100083.28;2623045;54;20031;-65
2022/03/01 02:28:03;;;;;;;14.73;10.07;;;;;;;0.33;60.73;100089.13;2623110;54;20034;-65
2022/03/01 02:30:33;;;;;;;14.52;10.10;;;;;;;0.39;60.76;100080.94;2623392;54;20038;-65
2022/03/01 02:33:03;;;;;;;16.33;10.23;;;;;;;0.49;60.78;100086.41;2623184;54;20034;-64
2022/03/01 02:35:37;;;;;;;16.73;10.20;;;;;;;0.58;60.86;100087.59;2622486;54;20130;-64
2022/03/01 02:38:07;;;;;;;15.23;10.25;;;;;;;0.62;60.44;100089.06;2623038;54;20066;-64
2022/03/01 02:40:37;;;;;;;16.65;11.15;;;;;;;0.55;60.08;100087.78;2623056;54;20173;-65
2022/03/01 02:43:08;;;;;;;14.57;10.27;;;;;;;0.43;60.57;100087.59;2623249;54;20030;-64
2022/03/01 02:45:37;;;;;;;14.65;10.02;;;;;;;0.43;60.93;100087.59;2624151;54;20042;-64
2022/03/01 02:48:07;;;;;;;17.73;11.40;;;;;;;0.41;61.09;100083.44;2624621;47;20030;-63
2022/03/01 02:50:42;;;;;;;16.48;10.20;;;;;;;0.44;60.77;100081.47;2626201;39;20500;-63
2022/03/01 02:53:12;;;;;;;17.48;10.98;;;;;;;0.52;61.13;100083.59;2624874;47;20035;-65
2022/03/01 02:55:42;;;;;;;18.40;11.70;;;;;;;0.56;60.72;100072.06;2625107;54;20050;-66
2022/03/01 02:58:11;;;;;;;19.08;11.77;;;;;;;0.58;60.58;100082.38;2625030;54;20031;-65
2022/03/01 03:00:42;;;;;;;23.30;11.10;;;;;;;0.61;60.92;100076.97;2625195;54;20069;-65
2022/03/01 03:03:11;;;;;;;18.20;10.90;;;;;;;0.63;60.44;100068.13;2625039;47;20026;-64
2022/03/01 03:05:44;;;;;;;19.35;11.13;;;;;;;0.63;60.51;100070.72;2625038;54;20644;-66
2022/03/01 03:08:13;;;;;;;17.40;11.07;;;;;;;0.61;60.35;100076.97;2626954;39;20679;-65
2022/03/01 03:10:44;;;;;;;18.73;11.00;;;;;;;0.62;60.11;100076.03;2625395;54;20039;-64
2022/03/01 03:13:14;;;;;;;16.15;10.15;;;;;;;0.63;60.16;100078.53;2625037;54;20053;-66
2022/03/01 03:15:45;;;;;;;20.48;11.13;;;;;;;0.68;60.40;100075.63;2625283;54;20046;-66
2022/03/01 03:18:15;;;;;;;14.77;10.25;;;;;;;0.69;60.33;100077.31;2625477;54;20057;-66
2022/03/01 03:20:49;;;;;;;20.30;11.07;;;;;;;0.68;60.19;100086.06;2626039;54;20033;-65
2022/03/01 03:23:19;;;;;;;15.77;10.52;;;;;;;0.64;60.10;100074.16;2625736;54;20545;-66
2022/03/01 03:25:49;;;;;;;17.55;10.70;;;;;;;0.64;60.10;100079.38;2625055;54;20027;-65
2022/03/01 03:28:19;;;;;;;19.27;10.77;;;;;;;0.67;60.23;100082.63;2625472;54;20034;-64
2022/03/01 03:30:50;;;;;;;20.48;11.65;;;;;;;0.68;59.99;100083.44;2625044;54;20030;-66
2022/03/01 03:33:19;;;;;;;20.98;11.07;;;;;;;0.55;59.99;100087.78;2624087;47;20555;-66
2022/03/01 03:35:56;;;;;;;20.60;11.40;;;;;;;0.51;60.05;100078.50;2625548;54;20037;-66
2022/03/01 03:38:29;;;;;;;18.48;11.85;;;;;;;0.51;59.88;100079.31;2624965;54;20042;-67
2022/03/01 03:40:59;;;;;;;17.92;11.75;;;;;;;0.46;60.15;100082.22;2626012;39;20410;-66
2022/03/01 03:43:29;;;;;;;19.23;11.85;;;;;;;0.42;60.20;100080.75;2625071;39;20419;-66
2022/03/01 03:45:59;;;;;;;18.20;11.05;;;;;;;0.36;60.06;100073.31;2623438;54;20030;-65
2022/03/01 03:48:28;;;;;;;20.45;11.70;;;;;;;0.31;60.35;100077.16;2624760;39;20425;-64
2022/03/01 03:51:00;;;;;;;22.67;11.98;;;;;;;0.30;60.27;100078.91;2625821;39;20391;-64
2022/03/01 03:53:30;;;;;;;17.85;10.95;;;;;;;0.29;60.35;100072.03;2625194;54;20030;-65
2022/03/01 03:56:00;;;;;;;20.45;10.68;;;;;;;0.24;60.13;100079.28;2625380;54;20034;-65
2022/03/01 03:58:30;;;;;;;21.50;11.10;;;;;;;0.17;60.12;100068.44;2625003;54;20043;-71
2022/03/01 04:00:59;;;;;;;19.77;10.60;;;;;;;0.13;60.38;100069.56;2625482;54;20600;-68
2022/03/01 04:03:29;;;;;;;19.85;13.00;;;;;;;0.09;60.27;100075.88;2625615;39;20441;-70
2022/03/01 04:06:02;;;;;;;18.67;12.15;;;;;;;0.17;60.80;100076.25;2625144;54;20039;-67
2022/03/01 04:08:32;;;;;;;20.15;12.13;;;;;;;0.15;60.44;100078.09;2625258;54;20122;-68
2022/03/01 04:11:02;;;;;;;16.85;10.18;;;;;;;0.11;60.05;100081.81;2625253;54;20085;-68
2022/03/01 04:13:31;;;;;;;15.13;10.57;;;;;;;0.10;60.04;100081.91;2625835;46;20069;-65
2022/03/01 04:16:03;;;;;;;16.75;10.07;;;;;;;0.14;59.91;100083.41;2625936;46;20070;-66
2022/03/01 04:18:33;;;;;;;19.08;11.60;;;;;;;0.21;59.72;100085.53;2625498;54;20073;-67
2022/03/01 04:21:07;;;;;;;18.52;10.95;;;;;;;0.28;60.17;100085.13;2625458;54;20037;-69
2022/03/01 04:23:36;;;;;;;20.73;11.70;;;;;;;0.32;59.95;100084.00;2625311;54;20031;-68
2022/03/01 04:26:06;;;;;;;16.58;10.55;;;;;;;0.31;59.93;100090.97;2625200;54;20070;-64
2022/03/01 04:28:36;;;;;;;17.42;10.60;;;;;;;0.29;59.86;100085.06;2625814;46;20042;-64
2022/03/01 04:31:06;;;;;;;18.55;10.88;;;;;;;0.27;59.47;100084.28;2625174;54;20077;-67
2022/03/01 04:33:36;;;;;;;15.55;10.32;;;;;;;0.19;59.91;100094.34;2624730;39;20485;-65
2022/03/01 04:36:11;;;;;;;15.15;10.63;;;;;;;0.13;59.70;100097.34;2625325;54;20034;-68
2022/03/01 04:38:41;;;;;;;16.77;10.38;;;;;;;0.08;60.00;100094.16;2625075;54;20034;-68
2022/03/01 04:41:11;;;;;;;19.85;11.43;;;;;;;0.07;59.92;100100.28;2624819;47;20034;-65
2022/03/01 04:43:41;;;;;;;20.95;10.77;;;;;;;0.02;60.18;100099.75;2625380;54;20046;-68
2022/03/01 04:46:11;;;;;;;18.38;10.95;;;;;;;0.00;60.43;100097.25;2624695;47;20035;-65
2022/03/01 04:48:41;;;;;;;19.83;11.98;;;;;;;0.08;60.10;100096.75;2625481;54;20130;-66
2022/03/01 04:51:21;;;;;;;18.08;10.93;;;;;;;0.10;60.08;100097.53;2625015;54;20023;-67
2022/03/01 04:53:51;;;;;;;19.67;10.80;;;;;;;0.09;60.12;100088.88;2624417;54;20037;-64
2022/03/01 04:56:22;;;;;;;16.17;10.30;;;;;;;0.14;60.30;100089.44;2624617;47;20034;-65
2022/03/01 04:58:52;;;;;;;17.02;11.05;;;;;;;0.21;60.13;100098.53;2625303;39;20515;-64
2022/03/01 05:01:22;;;;;;;17.42;9.77;;;;;;;0.26;60.24;100100.00;2625658;39;20437;-65
2022/03/01 05:03:52;;;;;;;17.02;11.00;;;;;;;0.11;59.78;100100.00;2624630;47;20540;-67
2022/03/01 05:06:24;;;;;;;16.33;10.55;;;;;;;0.08;60.03;100099.34;2624483;54;20037;-64
2022/03/01 05:08:54;;;;;;;17.83;11.23;;;;;;;-0.02;59.88;100099.94;2625308;46;20054;-66
2022/03/01 05:11:24;;;;;;;21.15;11.38;;;;;;;-0.11;60.26;100097.91;2624803;54;20054;-65
2022/03/01 05:13:53;;;;;;;17.13;10.55;;;;;;;-0.15;60.33;100098.19;2625174;54;20043;-65
2022/03/01 05:16:23;;;;;;;14.85;10.40;;;;;;;-0.12;60.66;100098.00;2618822;47;20033;-63
2022/03/01 05:18:53;;;;;;;17.38;10.50;;;;;;;-0.07;60.55;100101.16;2618536;54;20118;-64
2022/03/01 05:21:25;;;;;;;15.85;10.13;;;;;;;-0.06;60.08;100108.00;2618928;54;20034;-65
2022/03/01 05:23:54;;;;;;;16.38;10.13;;;;;;;-0.16;60.37;100115.53;2618628;54;20034;-64
2022/03/01 05:26:24;;;;;;;19.90;11.07;;;;;;;-0.15;60.84;100114.59;2618460;54;20113;-66
2022/03/01 05:28:54;;;;;;;20.05;12.48;;;;;;;-0.08;60.60;100100.31;2618613;54;20026;-65
2022/03/01 05:31:28;;;;;;;16.08;11.65;;;;;;;-0.12;60.60;100100.59;2619925;39;20432;-67
2022/03/01 05:33:58;;;;;;;16.95;11.20;;;;;;;-0.20;60.40;100090.66;2618136;54;20022;-65
2022/03/01 05:36:30;;;;;;;18.35;10.95;;;;;;;-0.21;60.40;100088.13;2618767;54;20050;-66
2022/03/01 05:38:59;;;;;;;16.58;10.07;;;;;;;-0.40;60.16;100081.47;2618426;54;20033;-65
2022/03/01 05:41:29;;;;;;;28.15;10.88;;;;;;;-0.54;60.14;100086.63;2618553;54;20035;-65
2022/03/01 05:43:58;;;;;;;15.38;9.63;;;;;;;-0.72;60.54;100083.34;2618336;54;20042;-67
2022/03/01 05:46:30;;;;;;;14.52;9.52;;;;;;;-0.79;60.96;100084.63;2618638;54;20030;-65
2022/03/01 05:49:00;;;;;;;15.98;10.30;;;;;;;-0.82;60.74;100093.47;2618648;54;20030;-64
2022/03/01 05:51:32;;;;;;;20.23;10.75;;;;;;;-0.76;61.41;100106.06;2618605;54;20038;-64
2022/03/01 05:54:02;;;;;;;18.70;10.93;;;;;;;-0.66;61.44;100108.97;2618158;54;20053;-65
2022/03/01 05:56:31;;;;;;;16.60;9.88;;;;;;;-0.73;60.46;100114.63;2618466;54;20042;-65
2022/03/01 05:59:03;;;;;;;18.05;11.50;;;;;;;-0.82;60.75;100108.19;2618407;54;20069;-64
2022/03/01 06:01:33;;;;;;;16.75;10.48;;;;;;;-0.87;60.95;100102.41;2618594;54;20058;-64
2022/03/01 06:04:05;;;;;;;18.23;11.05;;;;;;;-0.85;60.79;100103.19;2618599;54;20022;-64
2022/03/01 06:06:37;;;;;;;15.98;10.23;;;;;;;-0.91;60.96;100099.16;2618465;54;20027;-64
2022/03/01 06:09:07;;;;;;;19.25;10.85;;;;;;;-0.90;61.33;100097.41;2618378;54;20022;-64
2022/03/01 06:11:36;;;;;;;16.98;11.05;;;;;;;-0.89;61.05;100097.31;2618412;54;20030;-64
2022/03/01 06:14:07;;;;;;;19.98;11.43;;;;;;;-0.93;61.27;100105.38;2618041;54;20034;-65
2022/03/01 06:16:37;;;;;;;17.98;11.85;;;;;;;-0.98;61.23;100109.97;2618304;54;20565;-65
2022/03/01 06:19:08;;;;;;;17.90;10.88;;;;;;;-1.07;61.08;100114.75;2618262;54;20026;-64
2022/03/01 06:21:41;;;;;;;25.73;11.95;;;;;;;-1.02;61.37;100104.16;2618240;51;20033;-65
2022/03/01 06:24:11;;;;;;;19.23;11.25;;;;;;;-1.02;61.06;100117.97;2618211;54;20042;-64
2022/03/01 06:26:41;;;;;;;21.33;11.77;;;;;;;-1.02;61.29;100123.16;2618422;54;20106;-65
2022/03/01 06:29:11;;;;;;;20.50;11.43;;;;;;;-0.99;61.62;100132.50;2618318;39;20494;-64
2022/03/01 06:31:41;;;;;;;19.85;11.68;;;;;;;-0.93;61.34;100136.53;2617961;54;20042;-64
2022/03/01 06:34:12;;;;;;;20.85;12.98;;;;;;;-0.88;61.40;100137.09;2618021;54;20031;-64
2022/03/01 06:36:45;;;;;;;26.70;12.80;;;;;;;-0.81;61.07;100147.06;2619195;54;20053;-64
2022/03/01 06:39:15;;;;;;;20.35;11.38;;;;;;;-0.73;61.08;100145.78;2618634;54;20038;-64
2022/03/01 06:41:44;;;;;;;27.20;12.93;;;;;;;-0.64;61.23;100143.47;2618863;39;20418;-64
2022/03/01 06:44:16;;;;;;;22.13;12.88;;;;;;;-0.49;61.18;100149.56;2619113;54;20030;-64
2022/03/01 06:46:47;;;;;;;25.27;10.40;;;;;;;-0.36;60.90;100144.47;2619965;54;20059;-64
2022/03/01 06:49:16;;;;;;;19.63;11.82;;;;;;;-0.27;60.85;100149.13;2619769;54;20030;-64
2022/03/01 06:51:49;;;;;;;19.23;11.60;;;;;;;-0.33;60.34;100165.06;2620160;39;20413;-64
2022/03/01 06:54:18;;;;;;;20.08;11.98;;;;;;;-0.34;60.45;100168.59;2619644;54;20031;-64
2022/03/01 06:56:48;;;;;;;20.90;12.18;;;;;;;-0.27;60.97;100164.72;2619044;54;20605;-65
2022/03/01 06:59:18;;;;;;;25.13;13.88;;;;;;;-0.17;60.91;100162.41;2618929;54;20073;-65
2022/03/01 07:01:48;;;;;;;24.17;13.02;;;;;;;-0.15;60.66;100166.59;2618900;54;20041;-66
2022/03/01 07:04:18;;;;;;;21.45;13.38;;;;;;;-0.14;60.45;100157.03;2619163;54;20041;-65
2022/03/01 07:06:50;;;;;;;21.25;12.52;;;;;;;-0.10;60.49;100158.50;2619336;54;20026;-64
2022/03/01 07:09:21;;;;;;;21.25;12.57;;;;;;;0.01;60.73;100169.13;2619106;54;20031;-64
2022/03/01 07:11:50;;;;;;;20.17;12.07;;;;;;;-0.01;60.16;100160.56;2618288;54;20031;-64
2022/03/01 07:14:20;;;;;;;22.10;12.82;;;;;;;0.01;60.18;100155.28;2617988;54;20047;-65
2022/03/01 07:16:50;;;;;;;21.77;12.10;;;;;;;-0.01;60.03;100148.38;2618160;54;20041;-65
2022/03/01 07:19:19;;;;;;;27.48;13.15;;;;;;;-0.06;59.68;100139.22;2618562;54;20754;-65
2022/03/01 07:21:51;;;;;;;20.70;11.70;;;;;;;-0.11;59.16;100136.06;2618458;54;20026;-65
2022/03/01 07:24:21;;;;;;;21.77;11.35;;;;;;;-0.15;59.13;100135.41;2618153;54;20027;-66
2022/03/01 07:26:51;;;;;;;19.23;10.93;;;;;;;-0.13;59.08;100127.50;2619065;31;20536;-66
2022/03/01 07:29:20;;;;;;;19.95;11.73;;;;;;;-0.08;58.96;100139.31;2618397;54;20042;-65
2022/03/01 07:31:50;;;;;;;16.98;10.73;;;;;;;0.01;59.39;100157.88;2618300;54;20081;-65
2022/03/01 07:34:27;;;;;;;18.77;10.77;;;;;;;0.11;59.45;100159.81;2617121;47;20034;-65
2022/03/01 07:36:59;;;;;;;18.98;12.10;;;;;;;0.16;58.71;100151.72;2617999;54;20041;-64
2022/03/01 07:39:29;;;;;;;19.95;10.98;;;;;;;0.28;58.83;100158.78;2618061;54;20042;-64
2022/03/01 07:41:58;;;;;;;20.48;12.35;;;;;;;0.45;58.64;100169.00;2618397;54;20034;-64
2022/03/01 07:44:28;;;;;;;18.30;11.38;;;;;;;0.55;58.27;100171.88;2617975;54;20026;-64
2022/03/01 07:46:58;;;;;;;23.65;12.18;;;;;;;0.62;58.02;100170.56;2619037;54;20031;-64
2022/03/01 07:49:28;;;;;;;19.73;11.30;;;;;;;0.74;57.82;100154.19;2618615;54;20035;-64
2022/03/01 07:52:00;;;;;;;20.70;12.52;;;;;;;0.88;57.23;100161.09;2618988;54;20073;-65
2022/03/01 07:54:30;;;;;;;20.20;12.10;;;;;;;1.00;57.00;100169.91;2618128;54;20077;-66
2022/03/01 07:56:59;;;;;;;20.27;11.70;;;;;;;1.10;56.19;100171.00;2619159;54;20038;-66
2022/03/01 07:59:29;;;;;;;20.80;11.27;;;;;;;1.15;56.07;100168.09;2620291;54;20050;-65
2022/03/01 08:01:59;;;;;;;22.77;12.23;;;;;;;1.29;55.72;100169.78;2621007;54;20027;-66
2022/03/01 08:04:28;;;;;;;21.23;12.38;;;;;;;1.37;55.22;100160.53;2622574;39;20414;-66
2022/03/01 08:07:01;;;;;;;23.38;12.55;;;;;;;1.46;54.62;100159.09;2622276;54;20026;-65
2022/03/01 08:09:31;;;;;;;19.90;11.73;;;;;;;1.53;54.13;100167.34;2621208;54;20023;-66
2022/03/01 08:12:02;;;;;;;23.90;11.95;;;;;;;1.61;54.17;100170.28;2621095;39;20446;-66
2022/03/01 08:14:32;;;;;;;19.83;11.60;;;;;;;1.74;53.88;100161.53;2618069;54;20035;-65
2022/03/01 08:17:02;;;;;;;17.10;11.07;;;;;;;1.92;53.02;100171.69;2618926;54;20065;-65
2022/03/01 08:19:32;;;;;;;16.95;11.25;;;;;;;2.01;53.34;100167.59;2620829;39;20453;-68
2022/03/01 08:22:05;;;;;;;20.67;11.75;;;;;;;2.15;52.96;100154.44;2621006;54;20045;-64
2022/03/01 08:24:35;;;;;;;20.45;12.10;;;;;;;2.24;52.65;100153.78;2619843;54;20077;-66
2022/03/01 08:27:05;;;;;;;18.80;11.32;;;;;;;2.37;52.52;100157.25;2622459;54;20035;-65
2022/03/01 08:29:34;;;;;;;18.52;12.30;;;;;;;2.52;51.71;100151.88;2622477;54;20102;-65
2022/03/01 08:32:05;;;;;;;17.67;11.88;;;;;;;2.65;51.21;100150.91;2622086;54;20035;-66
2022/03/01 08:34:34;;;;;;;23.10;14.48;;;;;;;2.73;50.54;100140.75;2618991;39;20414;-65
2022/03/01 08:37:07;;;;;;;23.83;14.88;;;;;;;2.84;50.47;100136.53;2618774;54;20043;-65
2022/03/01 08:39:36;;;;;;;21.70;13.18;;;;;;;2.91;50.21;100137.75;2618802;54;20038;-65
2022/03/01 08:42:06;;;;;;;22.15;14.18;;;;;;;2.98;49.89;100131.97;2618901;54;20126;-65
2022/03/01 08:44:36;;;;;;;29.73;16.35;;;;;;;3.06;49.90;100127.94;2618321;54;20034;-67
2022/03/01 08:47:06;;;;;;;24.75;13.93;;;;;;;3.14;49.65;100129.09;2618415;54;20578;-65
2022/03/01 08:49:35;;;;;;;27.48;14.80;;;;;;;3.21;49.00;100127.66;2618471;54;20037;-67
2022/03/01 08:52:14;;;;;;;;;;;;;;;3.33;49.26;100122.47;2618637;54;20031;-66
2022/03/01 08:54:44;;;;;;;33.83;15.00;;;;;;;3.48;49.00;100129.19;2618708;54;19938;-66
2022/03/01 08:57:14;;;;;;;22.95;12.18;;;;;;;3.60;48.44;100127.44;2617954;54;20027;-66
2022/03/01 08:59:47;;;;;;;23.85;13.65;;;;;;;3.71;48.78;100125.69;2618936;54;20026;-67
2022/03/01 09:02:18;;;;;;;23.10;12.73;;;;;;;3.77;47.63;100111.28;2618937;54;20037;-65
2022/03/01 09:04:47;;;;;;;18.05;12.02;;;;;;;3.79;47.73;100111.16;2617832;47;20033;-64
2022/03/01 09:07:20;;;;;;;19.40;12.45;;;;;;;3.88;47.36;100113.09;2618884;54;20058;-65
2022/03/01 09:09:49;;;;;;;19.25;11.70;;;;;;;4.04;46.91;100110.09;2618172;47;20026;-66
2022/03/01 09:12:19;;;;;;;19.80;12.02;;;;;;;4.07;45.89;100109.88;2618565;54;20039;-66
2022/03/01 09:14:49;;;;;;;17.35;10.98;;;;;;;4.14;45.27;100113.69;2617688;54;20033;-65
2022/03/01 09:17:19;;;;;;;15.82;11.63;;;;;;;4.19;44.55;100117.59;2618556;54;20030;-65
2022/03/01 09:19:49;;;;;;;19.60;11.50;;;;;;;4.28;44.84;100115.22;2619694;31;20482;-65
2022/03/01 09:22:21;;;;;;;15.75;10.80;;;;;;;4.36;44.38;100102.38;2619029;54;20037;-66
2022/03/01 09:24:52;;;;;;;14.95;10.63;;;;;;;4.38;43.70;100103.91;2618438;54;20046;-66
2022/03/01 09:27:22;;;;;;;15.38;11.18;;;;;;;4.39;43.92;100108.19;2617950;47;20061;-66
2022/03/01 09:29:52;;;;;;;17.38;11.18;;;;;;;4.43;43.57;100109.63;2618750;54;20042;-66
2022/03/01 09:32:21;;;;;;;22.38;14.75;;;;;;;4.46;43.66;100114.63;2618691;54;20038;-66
2022/03/01 09:34:51;;;;;;;23.15;12.80;;;;;;;4.40;43.59;100114.25;2618550;54;20114;-65
2022/03/01 09:37:24;;;;;;;18.02;11.75;;;;;;;4.32;43.41;100114.03;2618416;46;20065;-66
2022/03/01 09:39:54;;;;;;;22.65;13.65;;;;;;;4.28;43.82;100112.59;2618617;54;20033;-66
2022/03/01 09:42:24;;;;;;;20.10;12.40;;;;;;;4.30;43.84;100111.53;2618748;54;20030;-70
2022/03/01 09:44:54;;;;;;;16.73;10.45;;;;;;;4.40;43.33;100111.63;2622669;39;20421;-67
2022/03/01 09:47:24;;;;;;;17.15;11.82;;;;;;;4.48;42.65;100104.84;2623738;54;20073;-67
2022/03/01 09:49:54;;;;;;;17.20;10.70;;;;;;;4.54;42.60;100111.41;2623737;54;20045;-69
2022/03/01 09:52:26;;;;;;;17.35;11.45;;;;;;;4.60;42.63;100112.69;2623333;54;20060;-65
2022/03/01 09:54:56;;;;;;;14.73;11.05;;;;;;;4.71;42.21;100110.88;2623280;54;20034;-65
2022/03/01 09:57:26;;;;;;;15.98;11.00;;;;;;;4.81;42.22;100108.34;2623680;54;20057;-66
2022/03/01 09:59:56;;;;;;;15.88;11.02;;;;;;;4.90;42.09;100114.66;2623560;54;20037;-64
2022/03/01 10:02:37;;;;;;;17.70;10.30;;;;;;;5.03;41.05;100107.44;2624899;47;20027;-64
2022/03/01 10:05:09;;;;;;;18.40;11.38;;;;;;;5.05;40.93;100105.50;2624641;54;20041;-66
2022/03/01 10:07:45;;;;;;;14.32;10.65;;;;;;;5.16;41.01;100110.72;2622654;54;20026;-65
2022/03/01 10:10:17;;;;;;;15.63;11.15;;;;;;;5.31;41.37;100099.94;2619917;54;20134;-65
2022/03/01 10:12:55;;;;;;;17.30;10.73;;;;;;;5.41;40.44;100109.53;2618633;54;20031;-66
2022/03/01 10:15:29;;;;;;;13.52;9.75;;;;;;;5.45;39.75;100105.69;2618513;54;20045;-66
2022/03/01 10:17:59;;;;;;;13.85;9.93;;;;;;;5.50;39.88;100117.59;2618033;54;20794;-72
2022/03/01 10:20:29;;;;;;;17.80;10.82;;;;;;;5.55;40.18;100118.03;2617987;50;20518;-64
2022/03/01 10:23:01;;;;;;;15.30;10.23;;;;;;;5.63;39.33;100108.56;2618416;54;20030;-67
2022/03/01 10:25:35;;;;;;;15.18;10.23;;;;;;;5.68;39.43;100102.94;2618060;54;20039;-67
2022/03/01 10:28:05;;;;;;;15.18;10.18;;;;;;;5.78;38.87;100105.59;2618321;54;20035;-67
2022/03/01 10:30:37;;;;;;;13.63;10.40;;;;;;;5.87;38.19;100110.06;2618278;54;20041;-65
2022/03/01 10:33:09;;;;;;;14.80;9.90;;;;;;;5.89;38.17;100108.16;2618500;54;20026;-65
2022/03/01 10:35:42;;;;;;;13.18;9.20;;;;;;;5.94;38.43;100098.94;2617788;54;20048;-66
2022/03/01 10:38:14;;;;;;;17.42;10.80;;;;;;;5.94;38.18;100100.75;2617519;54;20126;-67
2022/03/01 10:40:46;;;;;;;15.95;9.70;;;;;;;5.88;37.71;100091.59;2618219;54;20038;-65
2022/03/01 10:43:17;;;;;;;15.30;9.45;;;;;;;5.85;38.04;100088.38;2618087;54;20790;-68
2022/03/01 10:45:48;;;;;;;14.05;9.70;;;;;;;6.05;37.63;100097.22;2617490;54;20035;-65
2022/03/01 10:48:27;;;;;;;13.68;9.93;;;;;;;6.22;36.92;100095.75;2618045;39;20132;-66
2022/03/01 10:51:02;;;;;;;14.52;10.05;;;;;;;6.29;36.67;100099.53;2618278;54;20525;-64
2022/03/01 10:53:38;;;;;;;14.77;10.65;;;;;;;6.42;36.50;100100.09;2618463;54;20027;-63
2022/03/01 10:56:10;;;;;;;14.52;10.27;;;;;;;6.50;36.21;100108.13;2618144;54;20563;-64
2022/03/01 10:58:42;;;;;;;15.32;9.48;;;;;;;6.60;36.38;100093.22;2618006;54;20026;-65
2022/03/01 11:01:13;;;;;;;14.85;9.45;;;;;;;6.75;35.79;100104.19;2617830;54;20538;-64
2022/03/01 11:03:44;;;;;;;13.95;9.73;;;;;;;6.81;35.26;100105.41;2617934;54;20624;-65
2022/03/01 11:06:14;;;;;;;13.30;9.73;;;;;;;6.81;35.31;100094.91;2617770;54;20033;-66
2022/03/01 11:08:48;;;;;;;15.18;10.15;;;;;;;6.94;35.48;100091.06;2618036;54;20038;-64
2022/03/01 11:11:20;;;;;;;15.50;10.25;;;;;;;7.09;34.87;100096.72;2617577;47;20026;-65
2022/03/01 11:13:49;;;;;;;15.43;9.68;;;;;;;7.11;34.36;100091.34;2618074;54;20042;-65
2022/03/01 11:16:34;;;;;;;13.90;9.00;;;;;;;6.95;35.08;100086.63;2620466;54;20093;-65
2022/03/01 11:19:17;;;;;;;14.20;9.45;;;;;;;6.91;34.55;100088.69;2624388;54;20537;-65
2022/03/01 11:21:49;;;;;;;13.80;9.20;;;;;;;6.93;34.12;100088.56;2624178;54;20030;-66
2022/03/01 11:24:23;;;;;;;14.88;10.38;;;;;;;6.84;34.74;100079.69;2623442;54;20045;-65
2022/03/01 11:26:53;;;;;;;15.15;10.40;;;;;;;6.85;34.55;100076.09;2622601;54;20031;-66
2022/03/01 11:29:26;;;;;;;16.85;10.73;;;;;;;6.86;34.88;100072.53;2623538;54;20541;-66
2022/03/01 11:32:01;;;;;;;14.73;10.07;;;;;;;6.86;35.10;100071.69;2624642;39;20506;-65
2022/03/01 11:34:31;;;;;;;14.73;9.65;;;;;;;6.99;35.46;100072.25;2623446;54;20030;-65
2022/03/01 11:37:01;;;;;;;13.45;9.85;;;;;;;7.23;34.97;100055.22;2624918;39;20415;-65